This is the latest recevied weather packets stored in our database for station/object OM5ZU-10. If no packets are shown the sender has not sent any weather packets the latest 10 day(s).
| Time | Temp. | Humidity | Pressure | Rain* | Wind** | Luminosity | Snow |
|---|---|---|---|---|---|---|---|
| 1788474901 | 15° C | 72% | 1018.8 hPa | - | - | - | - |
| 1788474000 | 15° C | 72% | 1018.7 hPa | - | - | - | - |
| 1788473100 | 15.56° C | 72% | 1018.7 hPa | - | - | - | - |
| 1788472200 | 16.11° C | 72% | 1018.6 hPa | - | - | - | - |
| 1788471300 | 16.67° C | 72% | 1018.6 hPa | - | - | - | - |
| 1788470400 | 16.67° C | 72% | 1018.5 hPa | - | - | - | - |
| 1788469500 | 16.67° C | 72% | 1018.4 hPa | - | - | - | - |
| 1788468599 | 17.22° C | 72% | 1018.4 hPa | - | - | - | - |
| 1788467699 | 16.67° C | 72% | 1018.4 hPa | - | - | - | - |
| 1788466799 | 16.67° C | 72% | 1018.1 hPa | - | - | - | - |
| 1788465899 | 17.22° C | 72% | 1018.1 hPa | - | - | - | - |
| 1788464999 | 17.78° C | 72% | 1018.2 hPa | - | - | - | - |
| 1788464099 | 17.78° C | 72% | 1017.9 hPa | - | - | - | - |
| 1788463199 | 17.78° C | 72% | 1017.8 hPa | - | - | - | - |
| 1788462298 | 18.33° C | 72% | 1017.5 hPa | - | - | - | - |
| 1788461398 | 18.33° C | 72% | 1017.7 hPa | - | - | - | - |
| 1788460498 | 18.33° C | 72% | 1017.6 hPa | - | - | - | - |
| 1788459598 | 18.89° C | 63% | 1017.6 hPa | - | - | - | - |
| 1788458698 | 18.89° C | 61% | 1017.4 hPa | - | - | - | - |
| 1788457798 | 19.44° C | 63% | 1017.2 hPa | - | - | - | - |
| 1788456897 | 20° C | 57% | 1017.2 hPa | - | - | - | - |
| 1788455997 | 20.56° C | 59% | 1017 hPa | - | - | - | - |
| 1788455097 | 21.11° C | 57% | 1017 hPa | - | - | - | - |
| 1788454197 | 22.22° C | 54% | 1016.9 hPa | - | - | - | - |
| 1788453297 | 24.44° C | 45% | 1017 hPa | - | - | - | - |
* Rain since midnight (hover to see other rain measurements)
** Current wind speed in m/s (hover to see current wind gust speed)